Time;durP1;ratioP1;P1;durP2;ratioP2;P2;SDS_P1;SDS_P2;PMS_P1;PMS_P2;Temp;Humidity;BMP_temperature;BMP_pressure;BME280_temperature;BME280_humidity;BME280_pressure;Samples;Min_cycle;Max_cycle;Signal;HPM_P1;HPM_P2
2022/02/28 00:00:14;;;;;;;14.60;10.30;;;4.40;48.80;;;;;;6214027;28;20550;-62
2022/02/28 00:03:17;;;;;;;12.30;9.87;;;4.40;49.00;;;;;;6204161;28;20473;-63
2022/02/28 00:06:21;;;;;;;8.87;7.90;;;4.40;48.80;;;;;;6204200;28;20468;-60
2022/02/28 00:09:25;;;;;;;13.07;9.50;;;4.30;48.60;;;;;;6203916;28;20480;-60
2022/02/28 00:12:28;;;;;;;12.67;8.90;;;4.30;48.90;;;;;;6204305;28;20466;-61
2022/02/28 00:15:32;;;;;;;10.77;8.90;;;4.20;49.00;;;;;;6206506;28;20441;-62
2022/02/28 00:18:35;;;;;;;12.67;10.40;;;4.20;49.00;;;;;;6206135;28;20630;-60
2022/02/28 00:21:38;;;;;;;14.30;10.33;;;4.20;49.20;;;;;;6203786;28;20449;-63
2022/02/28 00:24:43;;;;;;;12.87;10.77;;;4.20;49.30;;;;;;6204441;28;20446;-63
2022/02/28 00:27:46;;;;;;;12.97;10.43;;;4.10;49.30;;;;;;6205178;28;20473;-60
2022/02/28 00:30:49;;;;;;;12.77;10.17;;;4.10;49.80;;;;;;6204111;28;20952;-63
2022/02/28 00:33:53;;;;;;;15.40;9.93;;;4.00;49.80;;;;;;6203066;28;20484;-61
2022/02/28 00:36:56;;;;;;;11.83;9.50;;;4.00;50.00;;;;;;6203622;28;20473;-63
2022/02/28 00:40:01;;;;;;;11.03;9.70;;;4.00;49.90;;;;;;6213638;28;20940;-62
2022/02/28 00:43:04;;;;;;;12.67;10.10;;;4.00;49.60;;;;;;6218077;28;20522;-62
2022/02/28 00:46:07;;;;;;;11.17;9.30;;;3.90;49.80;;;;;;6227290;28;20472;-63
2022/02/28 00:49:11;;;;;;;10.50;8.33;;;4.00;49.40;;;;;;6206154;28;20469;-63
2022/02/28 00:52:15;;;;;;;11.73;9.90;;;4.00;49.00;;;;;;6202854;28;20477;-60
2022/02/28 00:55:20;;;;;;;10.13;8.20;;;3.90;49.20;;;;;;6202928;28;20480;-60
2022/02/28 00:58:23;;;;;;;10.97;9.30;;;3.90;49.40;;;;;;6202973;28;20485;-63
2022/02/28 01:01:26;;;;;;;11.37;10.07;;;3.90;49.80;;;;;;6203040;28;20488;-62
2022/02/28 01:04:29;;;;;;;11.57;9.33;;;3.80;50.30;;;;;;6202354;28;20477;-62
2022/02/28 01:07:32;;;;;;;15.33;10.63;;;3.80;50.60;;;;;;6202606;28;20481;-63
2022/02/28 01:10:37;;;;;;;11.67;10.20;;;3.70;50.60;;;;;;6202769;28;20477;-60
2022/02/28 01:13:40;;;;;;;12.30;10.60;;;3.70;50.60;;;;;;6209947;28;20937;-61
2022/02/28 01:16:44;;;;;;;14.07;11.53;;;3.60;50.80;;;;;;6211564;28;20794;-61
2022/02/28 01:19:47;;;;;;;14.43;11.93;;;3.50;51.30;;;;;;6212714;28;20476;-60
2022/02/28 01:22:50;;;;;;;16.30;11.70;;;3.40;51.50;;;;;;6211853;28;20476;-60
2022/02/28 01:25:55;;;;;;;15.10;10.60;;;3.40;51.80;;;;;;6214477;28;20483;-60
2022/02/28 01:28:58;;;;;;;13.10;10.10;;;3.30;52.20;;;;;;6211574;28;20775;-60
2022/02/28 01:32:02;;;;;;;11.20;9.80;;;3.30;52.40;;;;;;6212028;28;21242;-60
2022/02/28 01:35:07;;;;;;;11.40;9.80;;;3.20;53.00;;;;;;6212910;28;20501;-60
2022/02/28 01:38:11;;;;;;;13.37;10.53;;;3.10;52.80;;;;;;6203030;28;21007;-59
2022/02/28 01:41:15;;;;;;;14.90;10.80;;;3.10;53.10;;;;;;6200750;28;20550;-59
2022/02/28 01:44:19;;;;;;;13.27;10.37;;;3.10;52.90;;;;;;6200633;28;20477;-59
2022/02/28 01:47:22;;;;;;;13.77;9.90;;;3.10;52.90;;;;;;6191355;28;20486;-59
2022/02/28 01:50:27;;;;;;;11.73;10.57;;;3.10;53.00;;;;;;6200558;28;20500;-61
2022/02/28 01:53:30;;;;;;;12.83;9.30;;;2.90;53.30;;;;;;6201008;28;20516;-60
2022/02/28 01:56:36;;;;;;;9.63;8.63;;;2.90;53.30;;;;;;6201672;28;20555;-60
2022/02/28 01:59:39;;;;;;;10.87;9.73;;;2.90;53.10;;;;;;6201828;28;20488;-59
2022/02/28 02:02:42;;;;;;;15.07;11.13;;;2.90;53.30;;;;;;6201145;28;20473;-59
2022/02/28 02:05:46;;;;;;;13.33;10.13;;;2.90;53.30;;;;;;6201309;28;21000;-60
2022/02/28 02:08:50;;;;;;;10.93;8.57;;;2.80;53.40;;;;;;6201655;28;20996;-59
2022/02/28 02:11:55;;;;;;;9.50;8.17;;;2.80;53.50;;;;;;6201467;28;20953;-59
2022/02/28 02:14:59;;;;;;;12.67;9.73;;;2.80;53.50;;;;;;6201167;28;20535;-59
2022/02/28 02:18:04;;;;;;;10.57;9.10;;;2.80;53.60;;;;;;6201245;28;20488;-59
2022/02/28 02:21:08;;;;;;;10.33;8.73;;;2.70;53.40;;;;;;6200576;28;20493;-59
2022/02/28 02:24:11;;;;;;;9.60;8.57;;;2.80;53.50;;;;;;6200974;28;20495;-59
2022/02/28 02:27:14;;;;;;;10.60;9.30;;;2.70;53.40;;;;;;6201627;28;20482;-60
2022/02/28 02:30:18;;;;;;;14.87;11.40;;;2.70;53.70;;;;;;6201515;28;20832;-59
2022/02/28 02:33:22;;;;;;;12.00;9.20;;;2.70;53.60;;;;;;6204942;28;20485;-63
2022/02/28 02:36:28;;;;;;;10.80;8.70;;;2.60;53.60;;;;;;6205423;28;20457;-59
2022/02/28 02:39:31;;;;;;;10.63;9.17;;;2.60;53.70;;;;;;6202668;28;20493;-59
2022/02/28 02:42:35;;;;;;;11.00;9.60;;;2.70;53.70;;;;;;6202910;28;20456;-60
2022/02/28 02:45:38;;;;;;;10.83;9.10;;;2.60;53.90;;;;;;6200979;28;20445;-60
2022/02/28 02:48:41;;;;;;;11.93;9.37;;;2.60;53.80;;;;;;6196460;28;20465;-59
2022/02/28 02:51:47;;;;;;;11.27;10.17;;;2.60;53.90;;;;;;6200484;28;20466;-59
2022/02/28 02:54:51;;;;;;;9.80;8.80;;;2.60;53.60;;;;;;6201371;28;20479;-59
2022/02/28 02:57:55;;;;;;;13.20;8.97;;;2.60;53.30;;;;;;6201340;28;20477;-59
2022/02/28 03:00:58;;;;;;;9.70;8.70;;;2.50;53.00;;;;;;6201158;28;20476;-59
2022/02/28 03:04:01;;;;;;;9.60;8.60;;;2.50;53.50;;;;;;6200677;28;20468;-59
2022/02/28 03:07:14;;;;;;;13.93;9.37;;;2.40;53.80;;;;;;6200109;28;20842;-61
2022/02/28 03:10:18;;;;;;;11.87;9.10;;;2.40;53.80;;;;;;6198664;28;20937;-59
2022/02/28 03:13:21;;;;;;;11.23;8.80;;;2.30;54.20;;;;;;6199910;28;20480;-60
2022/02/28 03:16:25;;;;;;;13.27;8.80;;;2.30;54.40;;;;;;6202136;28;20560;-59
2022/02/28 03:19:28;;;;;;;11.70;8.93;;;2.20;54.50;;;;;;6205561;28;20499;-59
2022/02/28 03:22:32;;;;;;;12.80;9.40;;;2.20;54.70;;;;;;6206043;28;20481;-59
2022/02/28 03:25:36;;;;;;;12.60;8.80;;;2.20;54.90;;;;;;6209748;28;20480;-59
2022/02/28 03:28:39;;;;;;;11.33;8.63;;;2.20;55.00;;;;;;6208268;28;20960;-60
2022/02/28 03:31:42;;;;;;;9.03;7.20;;;2.20;54.90;;;;;;6207959;28;20819;-59
2022/02/28 03:34:45;;;;;;;12.77;8.80;;;2.20;55.00;;;;;;6207579;28;20477;-60
2022/02/28 03:37:50;;;;;;;11.17;8.37;;;2.10;55.00;;;;;;6207467;28;20492;-59
2022/02/28 03:40:53;;;;;;;8.23;7.40;;;2.10;55.00;;;;;;6205985;28;20933;-59
2022/02/28 03:43:56;;;;;;;12.30;7.53;;;2.10;55.10;;;;;;6205153;28;20477;-59
2022/02/28 03:46:59;;;;;;;11.40;8.03;;;2.00;55.50;;;;;;6205669;28;20480;-59
2022/02/28 03:50:04;;;;;;;9.17;8.13;;;1.90;55.60;;;;;;6204921;28;20477;-60
2022/02/28 03:53:10;;;;;;;9.23;8.33;;;2.00;56.00;;;;;;6205129;28;20809;-60
2022/02/28 03:56:13;;;;;;;10.00;8.20;;;2.00;56.10;;;;;;6190608;28;20492;-60
2022/02/28 03:59:17;;;;;;;11.00;8.30;;;2.00;56.00;;;;;;6204383;28;20504;-60
2022/02/28 04:02:20;;;;;;;11.57;8.00;;;1.90;55.90;;;;;;6204768;28;20478;-59
2022/02/28 04:05:23;;;;;;;10.70;9.53;;;1.90;56.10;;;;;;6204765;28;20479;-60
2022/02/28 04:08:28;;;;;;;12.13;8.50;;;1.90;56.10;;;;;;6206017;28;20484;-59
2022/02/28 04:11:33;;;;;;;10.80;8.90;;;1.90;56.30;;;;;;6205670;28;20477;-58
2022/02/28 04:14:37;;;;;;;11.70;7.87;;;1.80;56.40;;;;;;6204430;28;20487;-59
2022/02/28 04:17:40;;;;;;;10.23;9.13;;;1.80;56.20;;;;;;6205162;28;20484;-59
2022/02/28 04:20:43;;;;;;;9.20;8.20;;;1.80;56.50;;;;;;6204880;28;20607;-59
2022/02/28 04:23:51;;;;;;;11.07;9.07;;;1.70;56.30;;;;;;6204561;28;20484;-59
2022/02/28 04:26:54;;;;;;;9.10;8.20;;;1.70;56.40;;;;;;6203833;28;20488;-59
2022/02/28 04:29:57;;;;;;;9.27;8.37;;;1.60;56.40;;;;;;6203730;28;20477;-59
2022/02/28 04:33:00;;;;;;;12.93;9.77;;;1.60;56.80;;;;;;6204026;28;20477;-59
2022/02/28 04:36:04;;;;;;;11.87;8.80;;;1.50;57.30;;;;;;6203619;28;20477;-59
2022/02/28 04:39:08;;;;;;;12.57;8.60;;;1.40;57.20;;;;;;6203329;28;20496;-59
2022/02/28 04:42:11;;;;;;;9.93;8.90;;;1.40;57.70;;;;;;6203678;28;20493;-59
2022/02/28 04:45:14;;;;;;;9.67;8.63;;;1.40;57.50;;;;;;6203630;28;20481;-59
2022/02/28 04:48:18;;;;;;;14.10;9.13;;;1.50;57.70;;;;;;6203477;28;21040;-59
2022/02/28 04:51:21;;;;;;;12.57;9.23;;;1.50;57.70;;;;;;6203585;28;20478;-59
2022/02/28 04:54:25;;;;;;;14.00;9.83;;;1.50;57.60;;;;;;6203836;28;20481;-58
2022/02/28 04:57:29;;;;;;;10.10;8.93;;;1.40;57.30;;;;;;6193966;28;20462;-58
2022/02/28 05:00:32;;;;;;;9.40;8.27;;;1.40;57.80;;;;;;6203368;28;20495;-59
2022/02/28 05:03:35;;;;;;;11.53;8.70;;;1.40;57.70;;;;;;6203424;28;20456;-59
2022/02/28 05:06:38;;;;;;;10.03;9.13;;;1.30;58.10;;;;;;6203140;28;20445;-59
2022/02/28 05:09:43;;;;;;;9.90;8.90;;;1.30;58.50;;;;;;6203090;28;20552;-59
2022/02/28 05:12:46;;;;;;;11.80;9.63;;;1.30;58.30;;;;;;6202967;28;20449;-60
2022/02/28 05:15:49;;;;;;;9.67;8.20;;;1.30;58.90;;;;;;6202878;28;20845;-60
2022/02/28 05:18:52;;;;;;;12.20;8.53;;;1.30;58.30;;;;;;6202624;28;20971;-59
2022/02/28 05:21:56;;;;;;;11.40;9.37;;;1.30;58.50;;;;;;6202931;28;21251;-60
2022/02/28 05:25:01;;;;;;;12.37;11.00;;;1.20;58.80;;;;;;6202871;28;20469;-60
2022/02/28 05:28:04;;;;;;;12.33;9.03;;;1.20;58.80;;;;;;6202790;28;20469;-59
2022/02/28 05:31:08;;;;;;;11.73;9.20;;;1.20;58.80;;;;;;6202362;28;20483;-59
2022/02/28 05:34:11;;;;;;;15.73;10.30;;;1.20;58.70;;;;;;6202497;28;20483;-60
2022/02/28 05:37:14;;;;;;;10.50;9.20;;;1.20;58.80;;;;;;6204008;28;20473;-59
2022/02/28 05:40:20;;;;;;;13.37;10.40;;;1.20;58.90;;;;;;6203182;28;20477;-59
2022/02/28 05:43:23;;;;;;;16.03;12.23;;;1.10;59.00;;;;;;6202552;28;20476;-60
2022/02/28 05:46:26;;;;;;;16.90;10.20;;;1.10;59.40;;;;;;6203903;28;20481;-60
2022/02/28 05:49:29;;;;;;;14.33;11.20;;;1.10;59.60;;;;;;6229733;28;20531;-60
2022/02/28 05:52:32;;;;;;;10.47;8.77;;;1.00;59.80;;;;;;6226773;28;20480;-60
2022/02/28 05:55:38;;;;;;;10.30;9.07;;;1.10;60.20;;;;;;6220325;28;20787;-60
2022/02/28 05:58:41;;;;;;;14.57;8.70;;;1.10;60.00;;;;;;6219840;28;20975;-60
2022/02/28 06:01:47;;;;;;;13.70;9.47;;;1.10;60.00;;;;;;6221012;28;20472;-60
2022/02/28 06:04:50;;;;;;;13.70;8.63;;;1.10;60.20;;;;;;6226566;28;20615;-60
2022/02/28 06:07:53;;;;;;;12.37;9.43;;;1.10;59.90;;;;;;6226394;28;20542;-59
2022/02/28 06:10:58;;;;;;;16.63;10.53;;;1.10;59.70;;;;;;6225351;28;20472;-60
2022/02/28 06:14:01;;;;;;;20.03;11.60;;;1.20;59.80;;;;;;6225804;28;20476;-60
2022/02/28 06:17:04;;;;;;;13.60;11.10;;;1.20;59.40;;;;;;6227119;28;20476;-60
2022/02/28 06:20:08;;;;;;;18.77;12.57;;;1.20;59.70;;;;;;6228415;28;20480;-59
2022/02/28 06:23:14;;;;;;;16.17;12.77;;;1.20;59.80;;;;;;6226045;28;20471;-59
2022/02/28 06:26:20;;;;;;;17.03;13.83;;;1.30;59.70;;;;;;6224322;28;20997;-60
2022/02/28 06:29:23;;;;;;;15.07;11.33;;;1.30;59.50;;;;;;6223718;28;20476;-59
2022/02/28 06:32:26;;;;;;;12.33;10.30;;;1.40;59.50;;;;;;6224090;28;20538;-59
2022/02/28 06:35:29;;;;;;;13.87;10.33;;;1.50;59.40;;;;;;6223529;28;20801;-59
2022/02/28 06:38:32;;;;;;;12.90;10.33;;;1.50;59.20;;;;;;6223632;28;20487;-60
2022/02/28 06:41:38;;;;;;;10.03;8.83;;;1.60;59.10;;;;;;6225636;28;20484;-59
2022/02/28 06:44:41;;;;;;;14.10;9.30;;;1.70;59.00;;;;;;6225715;28;20468;-60
2022/02/28 06:47:44;;;;;;;11.07;9.00;;;1.80;58.80;;;;;;6225547;28;20559;-60
2022/02/28 06:50:50;;;;;;;13.07;9.30;;;1.90;58.50;;;;;;6228104;28;20468;-59
2022/02/28 06:53:53;;;;;;;10.77;8.13;;;2.00;58.90;;;;;;6230066;28;20479;-59
2022/02/28 06:56:58;;;;;;;8.23;7.43;;;2.10;58.40;;;;;;6230584;28;20472;-60
2022/02/28 07:00:01;;;;;;;12.90;9.90;;;2.30;57.90;;;;;;6230772;28;20491;-60
2022/02/28 07:03:08;;;;;;;9.97;8.17;;;2.50;57.50;;;;;;6232787;28;20492;-60
2022/02/28 07:06:13;;;;;;;11.03;8.23;;;2.70;57.00;;;;;;6227019;28;20976;-60
2022/02/28 07:09:16;;;;;;;12.13;8.33;;;3.00;56.50;;;;;;6230512;28;20995;-59
2022/02/28 07:12:20;;;;;;;12.50;9.27;;;3.10;56.40;;;;;;6230001;28;20480;-60
2022/02/28 07:15:25;;;;;;;13.07;9.00;;;3.20;56.30;;;;;;6230178;28;20480;-60
2022/02/28 07:18:29;;;;;;;12.10;9.40;;;3.50;56.00;;;;;;6230406;28;20456;-60
2022/02/28 07:21:32;;;;;;;13.90;10.70;;;3.70;55.10;;;;;;6230812;28;20495;-59
2022/02/28 07:24:35;;;;;;;9.23;8.23;;;3.90;54.50;;;;;;6230629;28;20455;-59
2022/02/28 07:27:40;;;;;;;10.60;9.33;;;4.10;54.10;;;;;;6230657;28;20451;-59
2022/02/28 07:30:48;;;;;;;9.60;8.03;;;4.30;53.70;;;;;;6230624;28;20480;-60
2022/02/28 07:33:51;;;;;;;17.20;9.47;;;4.50;53.30;;;;;;6229326;28;20991;-60
2022/02/28 07:36:54;;;;;;;8.90;8.00;;;4.60;53.00;;;;;;6230017;28;20470;-60
2022/02/28 07:39:57;;;;;;;8.50;7.70;;;4.80;52.80;;;;;;6229399;28;20827;-60
2022/02/28 07:43:02;;;;;;;9.77;8.10;;;4.80;52.70;;;;;;6229564;28;20487;-60
2022/02/28 07:46:05;;;;;;;8.43;7.60;;;4.80;52.80;;;;;;6230845;28;20487;-60
2022/02/28 07:49:08;;;;;;;12.93;7.73;;;4.70;52.40;;;;;;6229566;28;20472;-59
2022/02/28 07:52:11;;;;;;;10.20;8.73;;;4.70;52.70;;;;;;6229708;28;20483;-60
2022/02/28 07:55:15;;;;;;;14.90;10.07;;;4.80;52.60;;;;;;6229314;28;20472;-63
2022/02/28 07:58:19;;;;;;;11.07;9.40;;;4.80;52.60;;;;;;6229582;28;20483;-63
2022/02/28 08:01:23;;;;;;;15.70;9.10;;;4.80;52.30;;;;;;6228646;28;20476;-63
2022/02/28 08:04:26;;;;;;;15.17;9.47;;;4.80;52.30;;;;;;6229609;28;20464;-63
2022/02/28 08:07:29;;;;;;;11.80;9.97;;;4.90;52.30;;;;;;6229313;28;20988;-64
2022/02/28 08:10:33;;;;;;;11.40;9.20;;;4.90;51.50;;;;;;6229447;28;20492;-64
2022/02/28 08:13:37;;;;;;;11.77;9.80;;;4.90;51.50;;;;;;6223457;28;20472;-64
2022/02/28 08:16:41;;;;;;;14.57;9.77;;;5.00;51.40;;;;;;6214866;28;20516;-64
2022/02/28 08:19:44;;;;;;;14.37;9.70;;;5.20;51.70;;;;;;6209946;28;20485;-64
2022/02/28 08:22:47;;;;;;;13.70;9.67;;;5.30;52.00;;;;;;6207098;28;20473;-64
2022/02/28 08:25:51;;;;;;;13.63;8.93;;;5.40;51.80;;;;;;6205549;28;20489;-64
2022/02/28 08:28:57;;;;;;;12.20;9.90;;;5.60;51.50;;;;;;6226571;28;20472;-65
2022/02/28 08:32:01;;;;;;;13.60;8.90;;;5.80;51.30;;;;;;6222306;28;20559;-63
2022/02/28 08:35:05;;;;;;;15.83;10.07;;;6.00;51.10;;;;;;6218111;28;20473;-64
2022/02/28 08:38:08;;;;;;;11.50;8.80;;;7.60;49.80;;;;;;6204582;28;20482;-63
2022/02/28 08:41:11;;;;;;;13.53;9.43;;;11.60;43.50;;;;;;6227167;28;20487;-63
2022/02/28 08:44:16;;;;;;;14.47;10.57;;;15.80;36.80;;;;;;6227712;28;20980;-63
2022/02/28 08:47:20;;;;;;;10.57;9.23;;;19.00;30.20;;;;;;6221484;28;20934;-64
2022/02/28 08:50:23;;;;;;;10.93;9.70;;;21.30;26.40;;;;;;6203201;28;20489;-63
2022/02/28 08:53:26;;;;;;;17.57;10.90;;;22.60;25.20;;;;;;6203091;28;20241;-63
2022/02/28 08:56:29;;;;;;;13.63;11.40;;;24.40;23.20;;;;;;6202598;28;20689;-63
2022/02/28 08:59:34;;;;;;;13.93;12.47;;;26.20;21.80;;;;;;6203996;28;20670;-64
2022/02/28 09:02:39;;;;;;;15.17;11.20;;;27.90;20.40;;;;;;6203459;28;20237;-63
2022/02/28 09:05:42;;;;;;;13.70;11.20;;;28.80;18.70;;;;;;6219055;28;20695;-64
2022/02/28 09:08:46;;;;;;;13.67;12.27;;;28.80;18.20;;;;;;6226796;28;20318;-63
2022/02/28 09:11:49;;;;;;;12.83;11.50;;;27.80;18.00;;;;;;6226556;28;20240;-63
2022/02/28 09:14:53;;;;;;;12.73;11.53;;;26.40;18.60;;;;;;6216693;28;20576;-65
2022/02/28 09:17:57;;;;;;;11.97;10.67;;;24.40;19.50;;;;;;6226562;28;20263;-63
2022/02/28 09:21:00;;;;;;;11.93;10.73;;;22.80;20.40;;;;;;6226474;28;20236;-64
2022/02/28 09:24:03;;;;;;;12.37;10.40;;;21.90;21.30;;;;;;6226596;28;20287;-63
2022/02/28 09:27:07;;;;;;;11.53;10.33;;;21.80;21.90;;;;;;6226586;28;20229;-65
2022/02/28 09:30:12;;;;;;;14.50;9.90;;;22.10;21.30;;;;;;6225507;28;20225;-65
2022/02/28 09:33:16;;;;;;;11.53;10.43;;;24.30;21.00;;;;;;6216132;28;20308;-63
2022/02/28 09:36:19;;;;;;;11.17;10.07;;;26.30;19.00;;;;;;6226523;28;20239;-65
2022/02/28 09:39:23;;;;;;;11.40;10.37;;;28.60;18.20;;;;;;6213086;28;20241;-64
2022/02/28 09:42:29;;;;;;;7.17;6.47;;;31.10;16.70;;;;;;6201507;28;20723;-65
2022/02/28 09:45:35;;;;;;;6.80;6.10;;;32.60;13.00;;;;;;6212008;28;20227;-64
2022/02/28 09:48:39;;;;;;;6.50;5.90;;;30.90;11.80;;;;;;6226162;28;20235;-64
2022/02/28 09:51:42;;;;;;;8.00;6.80;;;29.70;12.10;;;;;;6226249;28;20204;-64
2022/02/28 09:54:45;;;;;;;6.37;5.87;;;29.30;12.60;;;;;;6226148;28;20204;-65
2022/02/28 09:57:50;;;;;;;5.80;5.30;;;29.80;12.10;;;;;;6225902;28;20251;-66
2022/02/28 10:00:56;;;;;;;6.70;6.10;;;30.50;11.60;;;;;;6225592;28;20568;-64
2022/02/28 10:04:00;;;;;;;6.85;6.25;;;31.70;11.50;;;;;;6225800;28;20235;-63
2022/02/28 10:07:19;;;;;;;8.83;6.40;;;30.60;11.00;;;;;;6225980;28;20232;-65
2022/02/28 10:10:23;;;;;;;6.50;6.00;;;30.00;11.90;;;;;;6225565;28;20237;-64
2022/02/28 10:13:29;;;;;;;6.23;5.73;;;29.30;12.10;;;;;;6225304;28;20572;-66
2022/02/28 10:16:38;;;;;;;7.20;6.63;;;29.60;11.90;;;;;;6225647;28;20684;-64
2022/02/28 10:19:41;;;;;;;6.43;5.90;;;30.30;11.90;;;;;;6224739;28;20315;-63
2022/02/28 10:22:44;;;;;;;6.10;5.60;;;30.80;11.60;;;;;;6225026;28;20236;-64
2022/02/28 10:25:48;;;;;;;6.37;5.77;;;31.30;10.70;;;;;;6224238;28;20601;-64
2022/02/28 10:29:05;;;;;;;6.27;5.67;;;28.50;11.20;;;;;;6224696;28;20232;-65
2022/02/28 10:32:10;;;;;;;6.00;5.50;;;29.20;11.70;;;;;;6225195;28;20340;-64
2022/02/28 10:38:35;;;;;;;8.13;7.32;;;31.30;10.80;;;;;;6206775;28;20243;-65
2022/02/28 10:41:39;;;;;;;5.60;5.07;;;31.70;10.00;;;;;;6225138;28;20735;-64
2022/02/28 10:44:43;;;;;;;6.73;6.13;;;30.90;10.30;;;;;;6224345;28;20236;-64
2022/02/28 10:47:52;;;;;;;5.43;5.03;;;29.90;10.40;;;;;;6224981;28;20224;-64
2022/02/28 10:50:55;;;;;;;6.93;5.20;;;30.60;11.10;;;;;;6225103;28;20252;-64
2022/02/28 10:54:13;;;;;;;7.13;6.07;;;31.50;10.10;;;;;;6225183;28;20232;-64
2022/02/28 10:57:18;;;;;;;6.53;5.93;;;33.10;9.90;;;;;;6226530;28;20244;-64
2022/02/28 11:00:22;;;;;;;6.68;6.13;;;32.00;9.70;;;;;;6225344;28;20243;-63
2022/02/28 11:03:46;;;;;;;7.33;6.63;;;29.90;10.00;;;;;;6210889;28;20557;-64
2022/02/28 11:06:50;;;;;;;6.57;6.07;;;28.80;10.90;;;;;;6200763;28;20233;-63
2022/02/28 11:09:53;;;;;;;6.60;6.10;;;28.90;11.00;;;;;;6200663;28;20237;-63
2022/02/28 11:13:00;;;;;;;7.60;7.00;;;29.00;11.80;;;;;;6200563;28;20300;-63
2022/02/28 11:16:04;;;;;;;6.63;6.03;;;28.90;11.10;;;;;;6200871;28;20233;-63
2022/02/28 11:19:09;;;;;;;6.33;5.83;;;28.80;11.10;;;;;;6196119;28;20234;-64
2022/02/28 11:22:12;;;;;;;7.97;5.90;;;30.10;10.90;;;;;;6200848;28;20235;-64
2022/02/28 11:25:18;;;;;;;7.40;6.78;;;30.40;10.70;;;;;;6201300;28;20325;-65
2022/02/28 11:28:21;;;;;;;6.65;6.05;;;31.00;10.50;;;;;;6201511;28;20229;-65
2022/02/28 11:31:25;;;;;;;7.20;6.50;;;31.70;10.00;;;;;;6206785;28;20258;-64
2022/02/28 11:34:30;;;;;;;6.75;6.15;;;31.30;10.40;;;;;;6225430;28;20224;-64
2022/02/28 11:37:34;;;;;;;7.43;6.72;;;32.40;10.30;;;;;;6227089;28;20228;-65
2022/02/28 11:40:38;;;;;;;7.25;6.55;;;32.40;10.20;;;;;;6205738;28;20228;-63
2022/02/28 11:43:44;;;;;;;7.28;6.57;;;32.60;10.00;;;;;;6204218;28;20233;-64
2022/02/28 11:46:57;;;;;;;7.07;6.40;;;31.70;10.00;;;;;;6204953;28;20320;-64
2022/02/28 11:50:22;;;;;;;6.53;5.85;;;30.80;10.20;;;;;;6204729;28;20233;-63
2022/02/28 11:53:42;;;;;;;7.22;6.63;;;30.10;10.40;;;;;;6205106;28;20594;-63
2022/02/28 11:56:47;;;;;;;6.63;6.13;;;30.50;10.40;;;;;;6204404;28;20244;-63
2022/02/28 11:59:52;;;;;;;7.73;7.03;;;29.60;10.60;;;;;;6204182;28;20701;-64
2022/02/28 12:02:55;;;;;;;7.70;7.00;;;27.80;11.00;;;;;;6204620;28;20244;-64
2022/02/28 12:06:03;;;;;;;7.43;6.70;;;26.90;11.80;;;;;;6217105;28;20680;-64
2022/02/28 12:09:06;;;;;;;7.97;7.27;;;28.60;11.60;;;;;;6227922;28;20236;-65
2022/02/28 12:12:27;;;;;;;6.30;5.80;;;29.20;10.80;;;;;;6227823;28;20236;-64
2022/02/28 12:15:31;;;;;;;7.27;6.67;;;29.80;10.80;;;;;;6228048;28;20268;-64
2022/02/28 12:18:34;;;;;;;7.20;6.50;;;29.80;11.00;;;;;;6228381;28;20247;-65
2022/02/28 12:21:38;;;;;;;7.37;6.67;;;30.70;10.40;;;;;;6227792;28;20641;-64
2022/02/28 12:25:04;;;;;;;7.80;7.20;;;29.40;10.50;;;;;;6226808;28;20221;-63
2022/02/28 12:28:25;;;;;;;7.33;6.63;;;28.20;11.20;;;;;;6227223;28;20235;-63
2022/02/28 12:31:40;;;;;;;7.30;6.70;;;27.50;11.50;;;;;;6228885;28;20299;-65
2022/02/28 12:34:57;;;;;;;7.43;6.70;;;23.60;12.60;;;;;;6226478;28;20315;-64
2022/02/28 12:38:03;;;;;;;7.10;6.40;;;19.50;14.50;;;;;;6225852;28;20229;-63
2022/02/28 12:41:09;;;;;;;7.57;6.83;;;17.00;15.70;;;;;;6202932;28;20237;-64
2022/02/28 12:44:16;;;;;;;6.03;5.30;;;15.00;16.80;;;;;;6203402;28;20481;-64
2022/02/28 12:47:20;;;;;;;6.47;5.80;;;13.00;18.10;;;;;;6203361;28;20480;-63
2022/02/28 12:50:28;;;;;;;6.33;5.73;;;12.50;19.20;;;;;;6203169;28;20949;-63
2022/02/28 12:53:34;;;;;;;7.07;5.70;;;15.50;18.70;;;;;;6203663;28;20477;-63
2022/02/28 12:56:43;;;;;;;7.40;6.20;;;19.20;16.00;;;;;;6203740;28;20477;-63
2022/02/28 12:59:47;;;;;;;6.50;5.80;;;18.80;15.20;;;;;;6202438;28;20481;-63
2022/02/28 13:03:02;;;;;;;9.00;6.27;;;16.50;16.30;;;;;;6202699;28;20485;-63
2022/02/28 13:06:08;;;;;;;7.53;6.83;;;16.40;17.00;;;;;;6216686;28;20579;-63
2022/02/28 13:09:14;;;;;;;6.20;5.60;;;14.60;18.20;;;;;;6226732;28;20487;-63
2022/02/28 13:12:26;;;;;;;6.53;5.70;;;13.30;19.60;;;;;;6226981;28;20488;-62
2022/02/28 13:15:30;;;;;;;8.27;5.47;;;12.00;20.60;;;;;;6226300;28;20485;-63
2022/02/28 13:18:35;;;;;;;7.00;5.40;;;10.90;21.50;;;;;;6225924;28;20470;-62
2022/02/28 13:21:40;;;;;;;5.93;5.20;;;10.00;22.00;;;;;;6226606;28;20451;-62
2022/02/28 13:24:45;;;;;;;8.70;4.90;;;9.40;23.30;;;;;;6226464;28;20471;-62
2022/02/28 13:27:49;;;;;;;5.33;4.60;;;9.20;23.70;;;;;;6218186;28;20486;-62
2022/02/28 13:30:52;;;;;;;5.50;5.00;;;8.80;23.50;;;;;;6226529;28;20483;-64
2022/02/28 13:33:57;;;;;;;5.03;4.53;;;8.40;24.10;;;;;;6227000;28;20465;-62
2022/02/28 13:37:03;;;;;;;7.00;5.07;;;8.10;24.70;;;;;;6226428;28;20476;-62
2022/02/28 13:40:09;;;;;;;5.10;4.60;;;7.70;25.10;;;;;;6207862;28;20488;-62
2022/02/28 13:43:14;;;;;;;5.37;4.87;;;7.40;25.40;;;;;;6201750;28;20476;-62
2022/02/28 13:46:17;;;;;;;6.97;5.53;;;7.40;25.70;;;;;;6202026;28;20481;-64
2022/02/28 13:49:21;;;;;;;5.47;4.80;;;7.50;25.60;;;;;;6201408;28;20482;-62
2022/02/28 13:52:25;;;;;;;5.00;4.50;;;7.50;25.40;;;;;;6201615;28;20466;-62
2022/02/28 13:55:33;;;;;;;4.93;4.30;;;7.40;25.40;;;;;;6202085;28;20479;-62
2022/02/28 13:58:37;;;;;;;5.20;4.40;;;7.40;25.60;;;;;;6201098;28;20478;-63
2022/02/28 14:01:51;;;;;;;5.17;3.97;;;7.50;25.10;;;;;;6201354;28;20503;-63
2022/02/28 14:05:08;;;;;;;6.30;5.20;;;7.70;25.60;;;;;;6207428;28;20478;-62
2022/02/28 14:08:16;;;;;;;4.70;4.30;;;7.90;25.30;;;;;;6225989;28;20480;-62
2022/02/28 14:11:32;;;;;;;8.10;4.30;;;8.40;24.40;;;;;;6225883;28;20493;-62
2022/02/28 14:14:36;;;;;;;4.33;3.80;;;8.60;23.70;;;;;;6225861;28;20475;-62
2022/02/28 14:17:39;;;;;;;7.43;4.13;;;8.50;23.50;;;;;;6225954;28;20567;-63
2022/02/28 14:20:43;;;;;;;4.73;3.83;;;8.40;23.90;;;;;;6225517;28;20488;-63
2022/02/28 14:23:48;;;;;;;4.87;4.07;;;8.50;24.20;;;;;;6227446;28;20488;-62
2022/02/28 14:26:56;;;;;;;5.33;4.87;;;8.50;24.00;;;;;;6227451;28;20478;-62
2022/02/28 14:30:01;;;;;;;4.50;4.10;;;8.60;23.80;;;;;;6225899;28;20886;-62
2022/02/28 14:33:06;;;;;;;4.17;3.53;;;8.40;23.20;;;;;;6216476;28;20958;-62
2022/02/28 14:36:10;;;;;;;3.40;3.10;;;8.30;23.80;;;;;;6225587;28;20970;-63
2022/02/28 14:39:14;;;;;;;4.23;2.93;;;8.20;23.50;;;;;;6214081;28;20819;-62
2022/02/28 14:42:19;;;;;;;4.40;4.00;;;8.00;23.50;;;;;;6201200;28;20950;-63
2022/02/28 14:45:22;;;;;;;4.80;3.87;;;7.70;23.60;;;;;;6201259;28;20967;-62
2022/02/28 14:48:26;;;;;;;4.20;3.50;;;7.70;24.00;;;;;;6201348;28;20485;-62
2022/02/28 14:51:30;;;;;;;5.30;3.53;;;7.80;23.80;;;;;;6201254;28;20481;-62
2022/02/28 14:54:33;;;;;;;3.63;2.80;;;7.70;23.70;;;;;;6201250;28;20461;-62
2022/02/28 14:57:38;;;;;;;3.70;3.30;;;7.80;24.00;;;;;;6201903;28;20451;-63
2022/02/28 15:00:42;;;;;;;4.13;3.73;;;8.00;23.80;;;;;;6203039;28;20470;-62
2022/02/28 15:03:45;;;;;;;3.70;3.33;;;8.10;23.90;;;;;;6202551;28;20613;-62
2022/02/28 15:06:48;;;;;;;4.97;3.23;;;8.00;24.00;;;;;;6222973;28;20529;-63
2022/02/28 15:09:52;;;;;;;3.97;3.20;;;7.80;24.30;;;;;;6226913;28;20457;-62
2022/02/28 15:12:58;;;;;;;3.77;3.40;;;7.50;24.30;;;;;;6230307;28;20466;-63
2022/02/28 15:16:02;;;;;;;4.53;4.13;;;7.50;24.50;;;;;;6230287;28;20494;-63
2022/02/28 15:19:06;;;;;;;3.67;3.07;;;7.40;25.10;;;;;;6229979;28;20475;-63
2022/02/28 15:22:09;;;;;;;5.90;3.33;;;7.30;25.10;;;;;;6230963;28;20980;-63
2022/02/28 15:25:12;;;;;;;4.90;4.33;;;7.30;25.10;;;;;;6231716;28;20480;-63
2022/02/28 15:28:17;;;;;;;4.27;3.10;;;7.20;25.30;;;;;;6230622;28;20476;-63
2022/02/28 15:31:20;;;;;;;4.20;3.23;;;7.30;25.60;;;;;;6229407;28;20480;-63
2022/02/28 15:34:23;;;;;;;6.30;4.00;;;7.10;25.50;;;;;;6225237;28;20622;-63
2022/02/28 15:37:26;;;;;;;5.07;3.70;;;6.90;25.60;;;;;;6229257;28;20488;-63
2022/02/28 15:40:30;;;;;;;3.43;3.10;;;6.90;25.60;;;;;;6207305;28;20484;-62
2022/02/28 15:43:34;;;;;;;5.00;4.47;;;6.80;25.80;;;;;;6204897;28;20492;-62
2022/02/28 15:46:37;;;;;;;4.43;3.10;;;6.80;25.80;;;;;;6205859;28;20472;-62
2022/02/28 15:49:40;;;;;;;5.30;3.57;;;6.90;26.00;;;;;;6204760;28;20546;-63
2022/02/28 15:52:44;;;;;;;4.27;3.00;;;6.90;26.20;;;;;;6206491;28;20480;-63
2022/02/28 15:55:47;;;;;;;5.53;3.60;;;7.00;26.90;;;;;;6205131;28;20504;-60
2022/02/28 15:58:51;;;;;;;4.03;3.43;;;6.80;27.10;;;;;;6204277;28;20482;-60
2022/02/28 16:01:58;;;;;;;4.07;3.67;;;6.60;27.40;;;;;;6203961;28;20940;-60
2022/02/28 16:05:01;;;;;;;4.87;3.30;;;6.60;27.50;;;;;;6222914;28;20490;-60